Station Historical Data
Daily Summary for April 24, 2017 Units:  Both    English   Metric
« Previous Day
Next Day »
Daily Weekly Monthly Yearly Custom
  High: Low: Average:
Temperature: 64.3 °F /  17.9 °C 36.8 °F /  2.7 °C 50.6 °F /  10.3 °C
Dew Point: 48.5 °F /  9.2 °C 30.5 °F /  -0.8 °C 38.7 °F /  3.7 °C
Humidity: 79% 52% 65%
Wind Speed: 13.0mph /  20.9km/h - 4.6mph /  7.4km/h
Wind Gust: 21.0mph /  33.8km/h - -
Wind- - ENE
Pressure: 30.16 in /  1021.2 hPa 30.02 in /  1016.5 hPa -
Precipitation: 0.00 in /  0 mm    
Historical Graphs
 
 
Tabular Data for April 24, 2017
Time Temperature Dew Point Pressure Wind Wind Speed Wind Gust Humidity Rainfall Rate (Hourly)
00:00 42.4 °F /  5.8 °C 32.9 °F /  0.5 °C 30.08in /  1018.5hPa Calm     69% 0.00in /  0mm
00:05 42.3 °F /  5.7 °C 32.8 °F /  0.4 °C 30.09in /  1018.8hPa Calm     69% 0.00in /  0mm
00:10 42.1 °F /  5.6 °C 33.0 °F /  0.6 °C 30.09in /  1018.8hPa Calm     70% 0.00in /  0mm
00:15 41.9 °F /  5.5 °C 33.2 °F /  0.7 °C 30.09in /  1018.8hPa Calm     71% 0.00in /  0mm
00:20 41.9 °F /  5.5 °C 33.2 °F /  0.7 °C 30.09in /  1018.8hPa Calm     71% 0.00in /  0mm
00:25 41.8 °F /  5.4 °C 33.1 °F /  0.6 °C 30.09in /  1018.8hPa Calm     71% 0.00in /  0mm
00:30 41.5 °F /  5.3 °C 32.8 °F /  0.4 °C 30.09in /  1018.8hPa Calm     71% 0.00in /  0mm
00:35 41.5 °F /  5.3 °C 33.1 °F /  0.6 °C 30.09in /  1018.8hPa Calm     72% 0.00in /  0mm
00:40 41.5 °F /  5.3 °C 33.5 °F /  0.8 °C 30.09in /  1018.8hPa Calm     73% 0.00in /  0mm
00:45 41.4 °F /  5.2 °C 33.4 °F /  0.8 °C 30.09in /  1018.8hPa Calm     73% 0.00in /  0mm
00:50 41.3 °F /  5.2 °C 33.3 °F /  0.7 °C 30.09in /  1018.8hPa Calm     73% 0.00in /  0mm
00:55 41.2 °F /  5.1 °C 33.2 °F /  0.7 °C 30.09in /  1018.8hPa Calm     73% 0.00in /  0mm
01:00 41.1 °F /  5.1 °C 33.4 °F /  0.8 °C 30.09in /  1018.8hPa Calm     74% 0.00in /  0mm
01:05 40.9 °F /  4.9 °C 33.2 °F /  0.7 °C 30.10in /  1019.2hPa Calm     74% 0.00in /  0mm
01:10 40.8 °F /  4.9 °C 33.2 °F /  0.7 °C 30.09in /  1018.8hPa Calm     74% 0.00in /  0mm
01:15 40.7 °F /  4.8 °C 33.1 °F /  0.6 °C 30.09in /  1018.8hPa Calm     74% 0.00in /  0mm
01:20 40.5 °F /  4.7 °C 33.2 °F /  0.7 °C 30.09in /  1018.8hPa Calm     75% 0.00in /  0mm
01:25 40.4 °F /  4.7 °C 33.1 °F /  0.6 °C 30.09in /  1018.8hPa Calm     75% 0.00in /  0mm
01:30 40.3 °F /  4.6 °C 33.0 °F /  0.6 °C 30.09in /  1018.8hPa Calm     75% 0.00in /  0mm
01:35 40.1 °F /  4.5 °C 33.1 °F /  0.6 °C 30.09in /  1018.8hPa Calm     76% 0.00in /  0mm
01:40 40.0 °F /  4.4 °C 33.4 °F /  0.8 °C 30.09in /  1018.8hPa SSW 2.0mph /  3.2km/h 3.0mph /  4.8km/h 77% 0.00in /  0mm
01:45 39.9 °F /  4.4 °C 33.3 °F /  0.7 °C 30.09in /  1018.8hPa Calm   3.0mph /  4.8km/h 77% 0.00in /  0mm
01:50 39.9 °F /  4.4 °C 33.3 °F /  0.7 °C 30.09in /  1018.8hPa Calm     77% 0.00in /  0mm
01:55 39.9 °F /  4.4 °C 33.6 °F /  0.9 °C 30.09in /  1018.8hPa Calm     78% 0.00in /  0mm
02:00 39.9 °F /  4.4 °C 33.6 °F /  0.9 °C 30.09in /  1018.8hPa Calm     78% 0.00in /  0mm
02:05 39.9 °F /  4.4 °C 33.6 °F /  0.9 °C 30.09in /  1018.8hPa Calm     78% 0.00in /  0mm
02:10 40.0 °F /  4.4 °C 33.4 °F /  0.8 °C 30.09in /  1018.8hPa Calm   1.0mph /  1.6km/h 77% 0.00in /  0mm
02:15 40.0 °F /  4.4 °C 32.7 °F /  0.4 °C 30.09in /  1018.8hPa Calm   1.0mph /  1.6km/h 75% 0.00in /  0mm
02:20 39.7 °F /  4.3 °C 32.4 °F /  0.2 °C 30.09in /  1018.8hPa Calm   1.0mph /  1.6km/h 75% 0.00in /  0mm
02:25 39.4 °F /  4.1 °C 32.8 °F /  0.4 °C 30.09in /  1018.8hPa Calm     77% 0.00in /  0mm
02:30 38.8 °F /  3.8 °C 32.5 °F /  0.3 °C 30.09in /  1018.8hPa SSW 1.0mph /  1.6km/h 2.0mph /  3.2km/h 78% 0.00in /  0mm
02:35 38.7 °F /  3.7 °C 32.4 °F /  0.2 °C 30.09in /  1018.8hPa SSW 2.0mph /  3.2km/h 2.0mph /  3.2km/h 78% 0.00in /  0mm
02:40 38.7 °F /  3.7 °C 32.4 °F /  0.2 °C 30.09in /  1018.8hPa SSW 1.0mph /  1.6km/h 2.0mph /  3.2km/h 78% 0.00in /  0mm
02:45 39.1 °F /  3.9 °C 32.5 °F /  0.3 °C 30.09in /  1018.8hPa Calm     77% 0.00in /  0mm
02:50 38.9 °F /  3.8 °C 32.0 °F /  0 °C 30.09in /  1018.8hPa Calm     76% 0.00in /  0mm
02:55 38.4 °F /  3.6 °C 31.8 °F /  -0.1 °C 30.09in /  1018.8hPa Calm     77% 0.00in /  0mm
03:00 38.4 °F /  3.6 °C 32.1 °F /  0.1 °C 30.08in /  1018.5hPa Calm     78% 0.00in /  0mm
03:05 38.4 °F /  3.6 °C 32.1 °F /  0.1 °C 30.09in /  1018.8hPa Calm     78% 0.00in /  0mm
03:10 37.9 °F /  3.3 °C 31.7 °F /  -0.2 °C 30.09in /  1018.8hPa West 1.0mph /  1.6km/h 2.0mph /  3.2km/h 78% 0.00in /  0mm
03:15 37.9 °F /  3.3 °C 31.7 °F /  -0.2 °C 30.09in /  1018.8hPa West 1.0mph /  1.6km/h 2.0mph /  3.2km/h 78% 0.00in /  0mm
03:20 37.9 °F /  3.3 °C 31.7 °F /  -0.2 °C 30.09in /  1018.8hPa Calm     78% 0.00in /  0mm
03:25 37.9 °F /  3.3 °C 31.7 °F /  -0.2 °C 30.09in /  1018.8hPa Calm     78% 0.00in /  0mm
03:30 37.8 °F /  3.2 °C 31.6 °F /  -0.2 °C 30.09in /  1018.8hPa Calm     78% 0.00in /  0mm
03:35 37.9 °F /  3.3 °C 31.7 °F /  -0.2 °C 30.09in /  1018.8hPa Calm     78% 0.00in /  0mm
03:40 37.6 °F /  3.1 °C 31.4 °F /  -0.3 °C 30.09in /  1018.8hPa Calm     78% 0.00in /  0mm
03:45 37.4 °F /  3 °C 31.5 °F /  -0.3 °C 30.09in /  1018.8hPa Calm     79% 0.00in /  0mm
03:50 38.0 °F /  3.3 °C 32.1 °F /  0.1 °C 30.09in /  1018.8hPa Calm     79% 0.00in /  0mm
03:55 38.2 °F /  3.4 °C 31.9 °F /  -0.1 °C 30.09in /  1018.8hPa Calm     78% 0.00in /  0mm
04:00 38.4 °F /  3.6 °C 31.5 °F /  -0.3 °C 30.09in /  1018.8hPa Calm     76% 0.00in /  0mm
04:05 38.5 °F /  3.6 °C 31.9 °F /  -0.1 °C 30.09in /  1018.8hPa Calm     77% 0.00in /  0mm
04:10 38.1 °F /  3.4 °C 31.5 °F /  -0.3 °C 30.09in /  1018.8hPa Calm     77% 0.00in /  0mm
04:15 37.9 °F /  3.3 °C 31.3 °F /  -0.4 °C 30.10in /  1019.2hPa Calm     77% 0.00in /  0mm
04:20 37.8 °F /  3.2 °C 31.2 °F /  -0.4 °C 30.10in /  1019.2hPa Calm     77% 0.00in /  0mm
04:25 37.7 °F /  3.2 °C 31.5 °F /  -0.3 °C 30.10in /  1019.2hPa Calm     78% 0.00in /  0mm
04:30 38.2 °F /  3.4 °C 31.3 °F /  -0.4 °C 30.10in /  1019.2hPa Calm     76% 0.00in /  0mm
04:35 37.8 °F /  3.2 °C 31.2 °F /  -0.4 °C 30.10in /  1019.2hPa Calm     77% 0.00in /  0mm
04:40 37.9 °F /  3.3 °C 31.0 °F /  -0.6 °C 30.10in /  1019.2hPa Calm     76% 0.00in /  0mm
04:45 37.7 °F /  3.2 °C 30.8 °F /  -0.7 °C 30.10in /  1019.2hPa Calm     76% 0.00in /  0mm
04:50 38.0 °F /  3.3 °C 31.1 °F /  -0.5 °C 30.10in /  1019.2hPa Calm     76% 0.00in /  0mm
04:55 38.0 °F /  3.3 °C 30.8 °F /  -0.7 °C 30.10in /  1019.2hPa Calm     75% 0.00in /  0mm
05:00 37.8 °F /  3.2 °C 30.9 °F /  -0.6 °C 30.10in /  1019.2hPa Calm     76% 0.00in /  0mm
05:05 38.0 °F /  3.3 °C 31.4 °F /  -0.3 °C 30.10in /  1019.2hPa Calm     77% 0.00in /  0mm
05:10 37.9 °F /  3.3 °C 31.0 °F /  -0.6 °C 30.11in /  1019.5hPa Calm     76% 0.00in /  0mm
05:15 37.8 °F /  3.2 °C 30.9 °F /  -0.6 °C 30.11in /  1019.5hPa Calm     76% 0.00in /  0mm
05:20 37.6 °F /  3.1 °C 31.0 °F /  -0.6 °C 30.11in /  1019.5hPa Calm     77% 0.00in /  0mm
05:25 37.6 °F /  3.1 °C 31.0 °F /  -0.6 °C 30.11in /  1019.5hPa Calm     77% 0.00in /  0mm
05:30 37.7 °F /  3.2 °C 31.1 °F /  -0.5 °C 30.11in /  1019.5hPa Calm     77% 0.00in /  0mm
05:35 37.8 °F /  3.2 °C 30.9 °F /  -0.6 °C 30.11in /  1019.5hPa Calm     76% 0.00in /  0mm
05:40 37.4 °F /  3 °C 30.8 °F /  -0.7 °C 30.11in /  1019.5hPa Calm     77% 0.00in /  0mm
05:45 37.4 °F /  3 °C 30.8 °F /  -0.7 °C 30.11in /  1019.5hPa Calm     77% 0.00in /  0mm
05:50 37.0 °F /  2.8 °C 30.5 °F /  -0.8 °C 30.12in /  1019.9hPa Calm     77% 0.00in /  0mm
05:55 37.0 °F /  2.8 °C 30.5 °F /  -0.8 °C 30.12in /  1019.9hPa Calm     77% 0.00in /  0mm
06:00 36.8 °F /  2.7 °C 30.6 °F /  -0.8 °C 30.12in /  1019.9hPa Calm     78% 0.00in /  0mm
06:05 36.8 °F /  2.7 °C 30.6 °F /  -0.8 °C 30.12in /  1019.9hPa Calm     78% 0.00in /  0mm
06:10 37.0 °F /  2.8 °C 30.8 °F /  -0.7 °C 30.12in /  1019.9hPa Calm     78% 0.00in /  0mm
06:15 37.6 °F /  3.1 °C 31.4 °F /  -0.3 °C 30.12in /  1019.9hPa Calm     78% 0.00in /  0mm
06:20 38.0 °F /  3.3 °C 31.4 °F /  -0.3 °C 30.12in /  1019.9hPa Calm     77% 0.00in /  0mm
06:25 38.7 °F /  3.7 °C 31.8 °F /  -0.1 °C 30.12in /  1019.9hPa ENE 1.0mph /  1.6km/h 4.0mph /  6.4km/h 76% 0.00in /  0mm
06:30 39.0 °F /  3.9 °C 31.7 °F /  -0.2 °C 30.13in /  1020.2hPa NE 2.0mph /  3.2km/h 5.0mph /  8km/h 75% 0.00in /  0mm
06:35 39.4 °F /  4.1 °C 31.5 °F /  -0.3 °C 30.13in /  1020.2hPa ENE 2.0mph /  3.2km/h 5.0mph /  8km/h 73% 0.00in /  0mm
06:40 39.6 °F /  4.2 °C 32.0 °F /  0 °C 30.13in /  1020.2hPa ENE 2.0mph /  3.2km/h 8.0mph /  12.9km/h 74% 0.00in /  0mm
06:45 40.0 °F /  4.4 °C 32.4 °F /  0.2 °C 30.14in /  1020.5hPa ENE 3.0mph /  4.8km/h 8.0mph /  12.9km/h 74% 0.00in /  0mm
06:50 40.5 °F /  4.7 °C 32.9 °F /  0.5 °C 30.14in /  1020.5hPa ENE 3.0mph /  4.8km/h 8.0mph /  12.9km/h 74% 0.00in /  0mm
06:55 40.8 °F /  4.9 °C 33.2 °F /  0.7 °C 30.14in /  1020.5hPa ENE 3.0mph /  4.8km/h 6.0mph /  9.7km/h 74% 0.00in /  0mm
07:00 41.2 °F /  5.1 °C 33.5 °F /  0.8 °C 30.14in /  1020.5hPa ENE 3.0mph /  4.8km/h 7.0mph /  11.3km/h 74% 0.00in /  0mm
07:05 41.7 °F /  5.4 °C 34.4 °F /  1.3 °C 30.14in /  1020.5hPa NE 3.0mph /  4.8km/h 8.0mph /  12.9km/h 75% 0.00in /  0mm
07:10 42.1 °F /  5.6 °C 35.1 °F /  1.7 °C 30.14in /  1020.5hPa NE 4.0mph /  6.4km/h 10.0mph /  16.1km/h 76% 0.00in /  0mm
07:15 42.4 °F /  5.8 °C 35.4 °F /  1.9 °C 30.15in /  1020.9hPa NE 3.0mph /  4.8km/h 12.0mph /  19.3km/h 76% 0.00in /  0mm
07:20 42.6 °F /  5.9 °C 35.9 °F /  2.2 °C 30.15in /  1020.9hPa East 9.0mph /  14.5km/h 10.0mph /  16.1km/h 77% 0.00in /  0mm
07:25 42.8 °F /  6 °C 36.1 °F /  2.3 °C 30.15in /  1020.9hPa ESE 4.0mph /  6.4km/h 15.0mph /  24.1km/h 77% 0.00in /  0mm
07:30 42.9 °F /  6.1 °C 36.5 °F /  2.5 °C 30.16in /  1021.2hPa NE 7.0mph /  11.3km/h 15.0mph /  24.1km/h 78% 0.00in /  0mm
07:40 43.4 °F /  6.3 °C 37.0 °F /  2.8 °C 30.15in /  1020.9hPa NE 6.0mph /  9.7km/h 12.0mph /  19.3km/h 78% 0.00in /  0mm
07:45 43.5 °F /  6.4 °C 37.1 °F /  2.8 °C 30.15in /  1020.9hPa NE 6.0mph /  9.7km/h 13.0mph /  20.9km/h 78% 0.00in /  0mm
07:50 43.8 °F /  6.6 °C 37.4 °F /  3 °C 30.15in /  1020.9hPa East 5.0mph /  8km/h 10.0mph /  16.1km/h 78% 0.00in /  0mm
07:55 43.9 °F /  6.6 °C 37.2 °F /  2.9 °C 30.15in /  1020.9hPa NE 3.0mph /  4.8km/h 15.0mph /  24.1km/h 77% 0.00in /  0mm
08:00 44.0 °F /  6.7 °C 37.6 °F /  3.1 °C 30.15in /  1020.9hPa NE 7.0mph /  11.3km/h 15.0mph /  24.1km/h 78% 0.00in /  0mm
08:05 44.4 °F /  6.9 °C 37.6 °F /  3.1 °C 30.15in /  1020.9hPa NE 8.0mph /  12.9km/h 16.0mph /  25.7km/h 77% 0.00in /  0mm
08:10 45.0 °F /  7.2 °C 37.9 °F /  3.3 °C 30.15in /  1020.9hPa East 3.0mph /  4.8km/h 11.0mph /  17.7km/h 76% 0.00in /  0mm
08:15 44.6 °F /  7 °C 37.8 °F /  3.2 °C 30.16in /  1021.2hPa NE 9.0mph /  14.5km/h 14.0mph /  22.5km/h 77% 0.00in /  0mm
08:20 44.6 °F /  7 °C 37.8 °F /  3.2 °C 30.16in /  1021.2hPa NE 6.0mph /  9.7km/h 12.0mph /  19.3km/h 77% 0.00in /  0mm
08:30 45.6 °F /  7.6 °C 38.5 °F /  3.6 °C 30.16in /  1021.2hPa NE 7.0mph /  11.3km/h 15.0mph /  24.1km/h 76% 0.00in /  0mm
08:35 45.7 °F /  7.6 °C 38.2 °F /  3.4 °C 30.16in /  1021.2hPa ENE 7.0mph /  11.3km/h 15.0mph /  24.1km/h 75% 0.00in /  0mm
08:40 46.0 °F /  7.8 °C 38.5 °F /  3.6 °C 30.15in /  1020.9hPa ENE 7.0mph /  11.3km/h 16.0mph /  25.7km/h 75% 0.00in /  0mm
08:45 46.7 °F /  8.2 °C 39.2 °F /  4 °C 30.16in /  1021.2hPa East 5.0mph /  8km/h 13.0mph /  20.9km/h 75% 0.00in /  0mm
08:50 47.0 °F /  8.3 °C 38.8 °F /  3.8 °C 30.16in /  1021.2hPa NE 6.0mph /  9.7km/h 14.0mph /  22.5km/h 73% 0.00in /  0mm
08:55 47.2 °F /  8.4 °C 39.0 °F /  3.9 °C 30.16in /  1021.2hPa East 3.0mph /  4.8km/h 17.0mph /  27.4km/h 73% 0.00in /  0mm
09:00 47.3 °F /  8.5 °C 39.1 °F /  3.9 °C 30.16in /  1021.2hPa ENE 7.0mph /  11.3km/h 17.0mph /  27.4km/h 73% 0.00in /  0mm
09:05 47.8 °F /  8.8 °C 39.2 °F /  4 °C 30.16in /  1021.2hPa ENE 7.0mph /  11.3km/h 13.0mph /  20.9km/h 72% 0.00in /  0mm
09:10 47.8 °F /  8.8 °C 39.2 °F /  4 °C 30.16in /  1021.2hPa ENE 7.0mph /  11.3km/h 13.0mph /  20.9km/h 72% 0.00in /  0mm
09:15 48.6 °F /  9.2 °C 40.0 °F /  4.4 °C 30.16in /  1021.2hPa NE 6.0mph /  9.7km/h 12.0mph /  19.3km/h 72% 0.00in /  0mm
09:20 48.6 °F /  9.2 °C 39.6 °F /  4.2 °C 30.16in /  1021.2hPa NE 11.0mph /  17.7km/h 13.0mph /  20.9km/h 71% 0.00in /  0mm
09:25 48.4 °F /  9.1 °C 39.4 °F /  4.1 °C 30.16in /  1021.2hPa ENE 7.0mph /  11.3km/h 13.0mph /  20.9km/h 71% 0.00in /  0mm
09:30 49.0 °F /  9.4 °C 40.4 °F /  4.7 °C 30.16in /  1021.2hPa ENE 7.0mph /  11.3km/h 14.0mph /  22.5km/h 72% 0.00in /  0mm
09:35 49.3 °F /  9.6 °C 39.6 °F /  4.2 °C 30.16in /  1021.2hPa NE 6.0mph /  9.7km/h 13.0mph /  20.9km/h 69% 0.00in /  0mm
09:40 49.4 °F /  9.7 °C 40.0 °F /  4.4 °C 30.16in /  1021.2hPa ENE 7.0mph /  11.3km/h 13.0mph /  20.9km/h 70% 0.00in /  0mm
09:45 50.2 °F /  10.1 °C 40.8 °F /  4.9 °C 30.16in /  1021.2hPa ENE 9.0mph /  14.5km/h 12.0mph /  19.3km/h 70% 0.00in /  0mm
09:50 50.2 °F /  10.1 °C 40.4 °F /  4.7 °C 30.16in /  1021.2hPa East 9.0mph /  14.5km/h 15.0mph /  24.1km/h 69% 0.00in /  0mm
09:55 50.6 °F /  10.3 °C 40.8 °F /  4.9 °C 30.16in /  1021.2hPa ENE 7.0mph /  11.3km/h 15.0mph /  24.1km/h 69% 0.00in /  0mm
10:00 51.1 °F /  10.6 °C 40.9 °F /  4.9 °C 30.16in /  1021.2hPa ENE 7.0mph /  11.3km/h 13.0mph /  20.9km/h 68% 0.00in /  0mm
10:05 51.2 °F /  10.7 °C 40.6 °F /  4.8 °C 30.15in /  1020.9hPa ENE 7.0mph /  11.3km/h 13.0mph /  20.9km/h 67% 0.00in /  0mm
10:10 51.4 °F /  10.8 °C 40.8 °F /  4.9 °C 30.16in /  1021.2hPa ENE 7.0mph /  11.3km/h 13.0mph /  20.9km/h 67% 0.00in /  0mm
10:15 51.8 °F /  11 °C 40.8 °F /  4.9 °C 30.16in /  1021.2hPa ENE 7.0mph /  11.3km/h 13.0mph /  20.9km/h 66% 0.00in /  0mm
10:20 52.1 °F /  11.2 °C 42.2 °F /  5.7 °C 30.15in /  1020.9hPa ENE 6.0mph /  9.7km/h 13.0mph /  20.9km/h 69% 0.00in /  0mm
10:25 52.6 °F /  11.4 °C 41.9 °F /  5.5 °C 30.15in /  1020.9hPa ENE 6.0mph /  9.7km/h 13.0mph /  20.9km/h 67% 0.00in /  0mm
10:30 53.2 °F /  11.8 °C 41.7 °F /  5.4 °C 30.15in /  1020.9hPa NE 9.0mph /  14.5km/h 13.0mph /  20.9km/h 65% 0.00in /  0mm
10:35 53.6 °F /  12 °C 42.1 °F /  5.6 °C 30.15in /  1020.9hPa East 2.0mph /  3.2km/h 12.0mph /  19.3km/h 65% 0.00in /  0mm
10:40 54.3 °F /  12.4 °C 42.4 °F /  5.8 °C 30.15in /  1020.9hPa NE 5.0mph /  8km/h 12.0mph /  19.3km/h 64% 0.00in /  0mm
10:45 54.2 °F /  12.3 °C 42.7 °F /  5.9 °C 30.14in /  1020.5hPa NE 6.0mph /  9.7km/h 11.0mph /  17.7km/h 65% 0.00in /  0mm
10:50 54.4 °F /  12.4 °C 42.5 °F /  5.8 °C 30.15in /  1020.9hPa NE 6.0mph /  9.7km/h 11.0mph /  17.7km/h 64% 0.00in /  0mm
10:55 54.7 °F /  12.6 °C 43.2 °F /  6.2 °C 30.15in /  1020.9hPa NE 6.0mph /  9.7km/h 13.0mph /  20.9km/h 65% 0.00in /  0mm
11:00 55.8 °F /  13.2 °C 43.0 °F /  6.1 °C 30.15in /  1020.9hPa ENE 5.0mph /  8km/h 13.0mph /  20.9km/h 62% 0.00in /  0mm
11:05 56.1 °F /  13.4 °C 42.8 °F /  6 °C 30.14in /  1020.5hPa ENE 5.0mph /  8km/h 11.0mph /  17.7km/h 61% 0.00in /  0mm
11:10 55.7 °F /  13.2 °C 42.5 °F /  5.8 °C 30.14in /  1020.5hPa ENE 6.0mph /  9.7km/h 11.0mph /  17.7km/h 61% 0.00in /  0mm
11:15 56.6 °F /  13.7 °C 44.1 °F /  6.7 °C 30.14in /  1020.5hPa NE 6.0mph /  9.7km/h 11.0mph /  17.7km/h 63% 0.00in /  0mm
11:20 57.3 °F /  14.1 °C 44.0 °F /  6.7 °C 30.14in /  1020.5hPa NE 5.0mph /  8km/h 10.0mph /  16.1km/h 61% 0.00in /  0mm
11:25 57.8 °F /  14.3 °C 42.7 °F /  5.9 °C 30.14in /  1020.5hPa NE 5.0mph /  8km/h 13.0mph /  20.9km/h 57% 0.00in /  0mm
11:30 57.4 °F /  14.1 °C 42.3 °F /  5.7 °C 30.14in /  1020.5hPa NE 3.0mph /  4.8km/h 12.0mph /  19.3km/h 57% 0.00in /  0mm
11:35 58.2 °F /  14.6 °C 43.9 °F /  6.6 °C 30.13in /  1020.2hPa East 5.0mph /  8km/h 11.0mph /  17.7km/h 59% 0.00in /  0mm
11:40 58.1 °F /  14.5 °C 43.8 °F /  6.6 °C 30.13in /  1020.2hPa ENE 5.0mph /  8km/h 11.0mph /  17.7km/h 59% 0.00in /  0mm
11:45 58.8 °F /  14.9 °C 43.1 °F /  6.2 °C 30.13in /  1020.2hPa NE 6.0mph /  9.7km/h 10.0mph /  16.1km/h 56% 0.00in /  0mm
11:50 59.1 °F /  15.1 °C 43.4 °F /  6.3 °C 30.13in /  1020.2hPa ENE 6.0mph /  9.7km/h 12.0mph /  19.3km/h 56% 0.00in /  0mm
11:55 59.7 °F /  15.4 °C 44.0 °F /  6.7 °C 30.13in /  1020.2hPa ENE 6.0mph /  9.7km/h 12.0mph /  19.3km/h 56% 0.00in /  0mm
12:00 59.8 °F /  15.4 °C 44.1 °F /  6.7 °C 30.13in /  1020.2hPa ENE 7.0mph /  11.3km/h 14.0mph /  22.5km/h 56% 0.00in /  0mm
12:05 59.5 °F /  15.3 °C 43.8 °F /  6.6 °C 30.13in /  1020.2hPa NE 8.0mph /  12.9km/h 14.0mph /  22.5km/h 56% 0.00in /  0mm
12:10 60.2 °F /  15.7 °C 43.0 °F /  6.1 °C 30.13in /  1020.2hPa NNE 8.0mph /  12.9km/h 11.0mph /  17.7km/h 53% 0.00in /  0mm
12:15 60.3 °F /  15.7 °C 43.1 °F /  6.2 °C 30.13in /  1020.2hPa NNE 5.0mph /  8km/h 13.0mph /  20.9km/h 53% 0.00in /  0mm
12:20 60.8 °F /  16 °C 43.6 °F /  6.4 °C 30.13in /  1020.2hPa ENE 6.0mph /  9.7km/h 13.0mph /  20.9km/h 53% 0.00in /  0mm
12:25 60.8 °F /  16 °C 43.6 °F /  6.4 °C 30.12in /  1019.9hPa NE 6.0mph /  9.7km/h 12.0mph /  19.3km/h 53% 0.00in /  0mm
12:30 60.9 °F /  16.1 °C 43.6 °F /  6.4 °C 30.12in /  1019.9hPa NE 7.0mph /  11.3km/h 14.0mph /  22.5km/h 53% 0.00in /  0mm
12:35 60.8 °F /  16 °C 43.6 °F /  6.4 °C 30.12in /  1019.9hPa NE 8.0mph /  12.9km/h 14.0mph /  22.5km/h 53% 0.00in /  0mm
12:40 61.3 °F /  16.3 °C 45.0 °F /  7.2 °C 30.12in /  1019.9hPa NNE 7.0mph /  11.3km/h 14.0mph /  22.5km/h 55% 0.00in /  0mm
12:45 61.8 °F /  16.6 °C 45.0 °F /  7.2 °C 30.12in /  1019.9hPa NE 6.0mph /  9.7km/h 14.0mph /  22.5km/h 54% 0.00in /  0mm
12:50 61.9 °F /  16.6 °C 44.6 °F /  7 °C 30.11in /  1019.5hPa NE 7.0mph /  11.3km/h 14.0mph /  22.5km/h 53% 0.00in /  0mm
12:55 62.0 °F /  16.7 °C 46.6 °F /  8.1 °C 30.11in /  1019.5hPa North 6.0mph /  9.7km/h 12.0mph /  19.3km/h 57% 0.00in /  0mm
13:00 62.5 °F /  16.9 °C 45.1 °F /  7.3 °C 30.11in /  1019.5hPa ENE 5.0mph /  8km/h 14.0mph /  22.5km/h 53% 0.00in /  0mm
13:05 62.6 °F /  17 °C 46.7 °F /  8.2 °C 30.11in /  1019.5hPa NE 7.0mph /  11.3km/h 12.0mph /  19.3km/h 56% 0.00in /  0mm
13:10 62.6 °F /  17 °C 46.7 °F /  8.2 °C 30.11in /  1019.5hPa ENE 9.0mph /  14.5km/h 11.0mph /  17.7km/h 56% 0.00in /  0mm
13:15 63.0 °F /  17.2 °C 47.5 °F /  8.6 °C 30.11in /  1019.5hPa NE 6.0mph /  9.7km/h 13.0mph /  20.9km/h 57% 0.00in /  0mm
13:20 62.9 °F /  17.2 °C 47.0 °F /  8.3 °C 30.10in /  1019.2hPa NE 6.0mph /  9.7km/h 13.0mph /  20.9km/h 56% 0.00in /  0mm
13:25 63.1 °F /  17.3 °C 48.5 °F /  9.2 °C 30.10in /  1019.2hPa NE 7.0mph /  11.3km/h 13.0mph /  20.9km/h 59% 0.00in /  0mm
13:30 63.1 °F /  17.3 °C 47.1 °F /  8.4 °C 30.10in /  1019.2hPa NE 7.0mph /  11.3km/h 16.0mph /  25.7km/h 56% 0.00in /  0mm
13:35 63.0 °F /  17.2 °C 47.1 °F /  8.4 °C 30.10in /  1019.2hPa NE 6.0mph /  9.7km/h 16.0mph /  25.7km/h 56% 0.00in /  0mm
13:40 63.2 °F /  17.3 °C 47.7 °F /  8.7 °C 30.10in /  1019.2hPa NE 9.0mph /  14.5km/h 12.0mph /  19.3km/h 57% 0.00in /  0mm
13:45 63.1 °F /  17.3 °C 46.7 °F /  8.2 °C 30.10in /  1019.2hPa NE 6.0mph /  9.7km/h 16.0mph /  25.7km/h 55% 0.00in /  0mm
13:50 62.9 °F /  17.2 °C 47.0 °F /  8.3 °C 30.10in /  1019.2hPa NE 11.0mph /  17.7km/h 18.0mph /  29km/h 56% 0.00in /  0mm
13:55 62.7 °F /  17.1 °C 45.8 °F /  7.7 °C 30.10in /  1019.2hPa NE 8.0mph /  12.9km/h 15.0mph /  24.1km/h 54% 0.00in /  0mm
14:00 63.2 °F /  17.3 °C 47.2 °F /  8.4 °C 30.09in /  1018.8hPa NE 8.0mph /  12.9km/h 11.0mph /  17.7km/h 56% 0.00in /  0mm
14:05 63.4 °F /  17.4 °C 46.5 °F /  8.1 °C 30.09in /  1018.8hPa NNE 5.0mph /  8km/h 16.0mph /  25.7km/h 54% 0.00in /  0mm
14:10 63.6 °F /  17.6 °C 48.1 °F /  8.9 °C 30.09in /  1018.8hPa East 6.0mph /  9.7km/h 11.0mph /  17.7km/h 57% 0.00in /  0mm
14:15 63.6 °F /  17.6 °C 47.1 °F /  8.4 °C 30.09in /  1018.8hPa NE 7.0mph /  11.3km/h 14.0mph /  22.5km/h 55% 0.00in /  0mm
14:20 63.7 °F /  17.6 °C 46.7 °F /  8.2 °C 30.09in /  1018.8hPa NE 7.0mph /  11.3km/h 15.0mph /  24.1km/h 54% 0.00in /  0mm
14:25 63.8 °F /  17.7 °C 47.3 °F /  8.5 °C 30.09in /  1018.8hPa NE 7.0mph /  11.3km/h 15.0mph /  24.1km/h 55% 0.00in /  0mm
14:30 64.0 °F /  17.8 °C 47.0 °F /  8.3 °C 30.09in /  1018.8hPa NE 7.0mph /  11.3km/h 14.0mph /  22.5km/h 54% 0.00in /  0mm
14:35 63.7 °F /  17.6 °C 46.2 °F /  7.9 °C 30.08in /  1018.5hPa NE 7.0mph /  11.3km/h 15.0mph /  24.1km/h 53% 0.00in /  0mm
14:40 63.5 °F /  17.5 °C 46.6 °F /  8.1 °C 30.08in /  1018.5hPa ENE 7.0mph /  11.3km/h 15.0mph /  24.1km/h 54% 0.00in /  0mm
14:45 63.9 °F /  17.7 °C 46.9 °F /  8.3 °C 30.08in /  1018.5hPa NE 8.0mph /  12.9km/h 16.0mph /  25.7km/h 54% 0.00in /  0mm
14:50 63.8 °F /  17.7 °C 46.8 °F /  8.2 °C 30.08in /  1018.5hPa NE 7.0mph /  11.3km/h 16.0mph /  25.7km/h 54% 0.00in /  0mm
14:55 64.3 °F /  17.9 °C 46.3 °F /  7.9 °C 30.08in /  1018.5hPa NE 9.0mph /  14.5km/h 15.0mph /  24.1km/h 52% 0.00in /  0mm
15:00 64.0 °F /  17.8 °C 46.0 °F /  7.8 °C 30.08in /  1018.5hPa NE 8.0mph /  12.9km/h 15.0mph /  24.1km/h 52% 0.00in /  0mm
15:05 64.0 °F /  17.8 °C 47.5 °F /  8.6 °C 30.08in /  1018.5hPa NE 7.0mph /  11.3km/h 14.0mph /  22.5km/h 55% 0.00in /  0mm
15:10 63.3 °F /  17.4 °C 46.4 °F /  8 °C 30.08in /  1018.5hPa NE 7.0mph /  11.3km/h 17.0mph /  27.4km/h 54% 0.00in /  0mm
15:15 63.2 °F /  17.3 °C 46.8 °F /  8.2 °C 30.07in /  1018.2hPa NE 9.0mph /  14.5km/h 17.0mph /  27.4km/h 55% 0.00in /  0mm
15:20 63.7 °F /  17.6 °C 46.2 °F /  7.9 °C 30.07in /  1018.2hPa NE 8.0mph /  12.9km/h 19.0mph /  30.6km/h 53% 0.00in /  0mm
15:25 63.2 °F /  17.3 °C 46.3 °F /  7.9 °C 30.06in /  1017.8hPa NE 8.0mph /  12.9km/h 19.0mph /  30.6km/h 54% 0.00in /  0mm
15:30 63.1 °F /  17.3 °C 47.6 °F /  8.7 °C 30.06in /  1017.8hPa NE 9.0mph /  14.5km/h 18.0mph /  29km/h 57% 0.00in /  0mm
15:35 63.5 °F /  17.5 °C 46.6 °F /  8.1 °C 30.06in /  1017.8hPa NE 8.0mph /  12.9km/h 18.0mph /  29km/h 54% 0.00in /  0mm
15:40 63.4 °F /  17.4 °C 46.9 °F /  8.3 °C 30.06in /  1017.8hPa NE 9.0mph /  14.5km/h 16.0mph /  25.7km/h 55% 0.00in /  0mm
15:45 62.9 °F /  17.2 °C 46.0 °F /  7.8 °C 30.06in /  1017.8hPa NNE 4.0mph /  6.4km/h 16.0mph /  25.7km/h 54% 0.00in /  0mm
15:50 63.1 °F /  17.3 °C 45.7 °F /  7.6 °C 30.05in /  1017.5hPa NE 8.0mph /  12.9km/h 16.0mph /  25.7km/h 53% 0.00in /  0mm
15:55 62.6 °F /  17 °C 46.2 °F /  7.9 °C 30.06in /  1017.8hPa NE 6.0mph /  9.7km/h 13.0mph /  20.9km/h 55% 0.00in /  0mm
16:00 63.1 °F /  17.3 °C 45.7 °F /  7.6 °C 30.05in /  1017.5hPa NE 5.0mph /  8km/h 16.0mph /  25.7km/h 53% 0.00in /  0mm
16:05 62.4 °F /  16.9 °C 45.5 °F /  7.5 °C 30.05in /  1017.5hPa NNE 5.0mph /  8km/h 16.0mph /  25.7km/h 54% 0.00in /  0mm
16:10 62.3 °F /  16.8 °C 45.9 °F /  7.7 °C 30.05in /  1017.5hPa NNE 8.0mph /  12.9km/h 15.0mph /  24.1km/h 55% 0.00in /  0mm
16:15 62.0 °F /  16.7 °C 44.7 °F /  7.1 °C 30.06in /  1017.8hPa NE 8.0mph /  12.9km/h 15.0mph /  24.1km/h 53% 0.00in /  0mm
16:20 62.3 °F /  16.8 °C 45.9 °F /  7.7 °C 30.05in /  1017.5hPa NE 8.0mph /  12.9km/h 15.0mph /  24.1km/h 55% 0.00in /  0mm
16:25 62.0 °F /  16.7 °C 44.2 °F /  6.8 °C 30.05in /  1017.5hPa NE 7.0mph /  11.3km/h 18.0mph /  29km/h 52% 0.00in /  0mm
16:30 62.1 °F /  16.7 °C 45.2 °F /  7.3 °C 30.05in /  1017.5hPa NE 8.0mph /  12.9km/h 18.0mph /  29km/h 54% 0.00in /  0mm
16:35 61.6 °F /  16.4 °C 44.3 °F /  6.8 °C 30.05in /  1017.5hPa NE 8.0mph /  12.9km/h 14.0mph /  22.5km/h 53% 0.00in /  0mm
16:40 61.5 °F /  16.4 °C 44.7 °F /  7.1 °C 30.05in /  1017.5hPa NNE 5.0mph /  8km/h 15.0mph /  24.1km/h 54% 0.00in /  0mm
16:45 62.0 °F /  16.7 °C 45.2 °F /  7.3 °C 30.04in /  1017.2hPa NE 8.0mph /  12.9km/h 15.0mph /  24.1km/h 54% 0.00in /  0mm
16:50 62.4 °F /  16.9 °C 45.5 °F /  7.5 °C 30.04in /  1017.2hPa NE 7.0mph /  11.3km/h 14.0mph /  22.5km/h 54% 0.00in /  0mm
16:55 62.3 °F /  16.8 °C 45.4 °F /  7.4 °C 30.04in /  1017.2hPa ENE 7.0mph /  11.3km/h 11.0mph /  17.7km/h 54% 0.00in /  0mm
17:00 62.2 °F /  16.8 °C 44.9 °F /  7.2 °C 30.04in /  1017.2hPa ENE 12.0mph /  19.3km/h 17.0mph /  27.4km/h 53% 0.00in /  0mm
17:05 61.6 °F /  16.4 °C 43.8 °F /  6.6 °C 30.03in /  1016.8hPa ENE 13.0mph /  20.9km/h 16.0mph /  25.7km/h 52% 0.00in /  0mm
17:10 61.4 °F /  16.3 °C 44.6 °F /  7 °C 30.03in /  1016.8hPa ENE 9.0mph /  14.5km/h 15.0mph /  24.1km/h 54% 0.00in /  0mm
17:15 61.8 °F /  16.6 °C 45.0 °F /  7.2 °C 30.03in /  1016.8hPa NE 8.0mph /  12.9km/h 15.0mph /  24.1km/h 54% 0.00in /  0mm
17:20 61.3 °F /  16.3 °C 44.0 °F /  6.7 °C 30.03in /  1016.8hPa ENE 10.0mph /  16.1km/h 17.0mph /  27.4km/h 53% 0.00in /  0mm
17:25 61.5 °F /  16.4 °C 44.7 °F /  7.1 °C 30.03in /  1016.8hPa NNE 5.0mph /  8km/h 12.0mph /  19.3km/h 54% 0.00in /  0mm
17:30 61.1 °F /  16.2 °C 43.8 °F /  6.6 °C 30.03in /  1016.8hPa NNE 9.0mph /  14.5km/h 16.0mph /  25.7km/h 53% 0.00in /  0mm
17:35 60.9 °F /  16.1 °C 43.6 °F /  6.4 °C 30.03in /  1016.8hPa NNE 4.0mph /  6.4km/h 12.0mph /  19.3km/h 53% 0.00in /  0mm
17:40 60.8 °F /  16 °C 44.0 °F /  6.7 °C 30.03in /  1016.8hPa NE 7.0mph /  11.3km/h 12.0mph /  19.3km/h 54% 0.00in /  0mm
17:45 61.0 °F /  16.1 °C 43.2 °F /  6.2 °C 30.03in /  1016.8hPa NE 6.0mph /  9.7km/h 16.0mph /  25.7km/h 52% 0.00in /  0mm
17:50 60.6 °F /  15.9 °C 42.9 °F /  6.1 °C 30.03in /  1016.8hPa NE 8.0mph /  12.9km/h 17.0mph /  27.4km/h 52% 0.00in /  0mm
17:55 60.2 °F /  15.7 °C 43.0 °F /  6.1 °C 30.03in /  1016.8hPa NE 8.0mph /  12.9km/h 17.0mph /  27.4km/h 53% 0.00in /  0mm
18:00 59.7 °F /  15.4 °C 42.0 °F /  5.6 °C 30.02in /  1016.5hPa NE 8.0mph /  12.9km/h 18.0mph /  29km/h 52% 0.00in /  0mm
18:05 59.6 °F /  15.3 °C 42.4 °F /  5.8 °C 30.02in /  1016.5hPa ENE 11.0mph /  17.7km/h 16.0mph /  25.7km/h 53% 0.00in /  0mm
18:10 59.3 °F /  15.2 °C 42.6 °F /  5.9 °C 30.03in /  1016.8hPa NE 8.0mph /  12.9km/h 16.0mph /  25.7km/h 54% 0.00in /  0mm
18:15 59.1 °F /  15.1 °C 42.0 °F /  5.6 °C 30.02in /  1016.5hPa NE 7.0mph /  11.3km/h 17.0mph /  27.4km/h 53% 0.00in /  0mm
18:20 58.9 °F /  14.9 °C 42.8 °F /  6 °C 30.02in /  1016.5hPa NE 6.0mph /  9.7km/h 21.0mph /  33.8km/h 55% 0.00in /  0mm
18:25 59.1 °F /  15.1 °C 42.0 °F /  5.6 °C 30.02in /  1016.5hPa NE 6.0mph /  9.7km/h 13.0mph /  20.9km/h 53% 0.00in /  0mm
18:30 59.2 °F /  15.1 °C 42.6 °F /  5.9 °C 30.02in /  1016.5hPa NE 3.0mph /  4.8km/h 13.0mph /  20.9km/h 54% 0.00in /  0mm
18:35 58.7 °F /  14.8 °C 41.6 °F /  5.3 °C 30.02in /  1016.5hPa NNE 4.0mph /  6.4km/h 16.0mph /  25.7km/h 53% 0.00in /  0mm
18:40 58.4 °F /  14.7 °C 41.8 °F /  5.4 °C 30.02in /  1016.5hPa ENE 13.0mph /  20.9km/h 15.0mph /  24.1km/h 54% 0.00in /  0mm
18:45 58.1 °F /  14.5 °C 41.0 °F /  5 °C 30.02in /  1016.5hPa NE 7.0mph /  11.3km/h 17.0mph /  27.4km/h 53% 0.00in /  0mm
18:50 57.5 °F /  14.2 °C 41.0 °F /  5 °C 30.02in /  1016.5hPa NE 9.0mph /  14.5km/h 18.0mph /  29km/h 54% 0.00in /  0mm
18:55 57.2 °F /  14 °C 40.7 °F /  4.8 °C 30.02in /  1016.5hPa NE 9.0mph /  14.5km/h 18.0mph /  29km/h 54% 0.00in /  0mm
19:00 56.8 °F /  13.8 °C 40.8 °F /  4.9 °C 30.02in /  1016.5hPa NE 3.0mph /  4.8km/h 14.0mph /  22.5km/h 55% 0.00in /  0mm
19:05 56.6 °F /  13.7 °C 40.1 °F /  4.5 °C 30.02in /  1016.5hPa NE 11.0mph /  17.7km/h 17.0mph /  27.4km/h 54% 0.00in /  0mm
19:10 56.2 °F /  13.4 °C 40.2 °F /  4.6 °C 30.02in /  1016.5hPa NE 7.0mph /  11.3km/h 16.0mph /  25.7km/h 55% 0.00in /  0mm
19:15 56.0 °F /  13.3 °C 40.1 °F /  4.5 °C 30.02in /  1016.5hPa NE 8.0mph /  12.9km/h 16.0mph /  25.7km/h 55% 0.00in /  0mm
19:20 55.7 °F /  13.2 °C 39.8 °F /  4.3 °C 30.02in /  1016.5hPa NE 8.0mph /  12.9km/h 15.0mph /  24.1km/h 55% 0.00in /  0mm
19:25 55.4 °F /  13 °C 40.0 °F /  4.4 °C 30.02in /  1016.5hPa NNE 4.0mph /  6.4km/h 15.0mph /  24.1km/h 56% 0.00in /  0mm
19:30 55.0 °F /  12.8 °C 39.6 °F /  4.2 °C 30.02in /  1016.5hPa NE 6.0mph /  9.7km/h 15.0mph /  24.1km/h 56% 0.00in /  0mm
19:35 54.7 °F /  12.6 °C 39.3 °F /  4.1 °C 30.02in /  1016.5hPa NE 5.0mph /  8km/h 15.0mph /  24.1km/h 56% 0.00in /  0mm
19:40 54.6 °F /  12.6 °C 39.7 °F /  4.3 °C 30.02in /  1016.5hPa ENE 7.0mph /  11.3km/h 13.0mph /  20.9km/h 57% 0.00in /  0mm
19:45 54.4 °F /  12.4 °C 39.0 °F /  3.9 °C 30.02in /  1016.5hPa NE 7.0mph /  11.3km/h 13.0mph /  20.9km/h 56% 0.00in /  0mm
19:50 54.1 °F /  12.3 °C 38.7 °F /  3.7 °C 30.02in /  1016.5hPa NE 8.0mph /  12.9km/h 15.0mph /  24.1km/h 56% 0.00in /  0mm
19:55 53.9 °F /  12.2 °C 38.1 °F /  3.4 °C 30.03in /  1016.8hPa ESE 7.0mph /  11.3km/h 15.0mph /  24.1km/h 55% 0.00in /  0mm
20:00 53.7 °F /  12.1 °C 38.4 °F /  3.6 °C 30.03in /  1016.8hPa NE 7.0mph /  11.3km/h 14.0mph /  22.5km/h 56% 0.00in /  0mm
20:05 53.5 °F /  11.9 °C 38.2 °F /  3.4 °C 30.03in /  1016.8hPa ENE 7.0mph /  11.3km/h 11.0mph /  17.7km/h 56% 0.00in /  0mm
20:10 53.3 °F /  11.8 °C 38.0 °F /  3.3 °C 30.03in /  1016.8hPa ENE 6.0mph /  9.7km/h 14.0mph /  22.5km/h 56% 0.00in /  0mm
20:15 53.0 °F /  11.7 °C 37.7 °F /  3.2 °C 30.03in /  1016.8hPa ENE 7.0mph /  11.3km/h 14.0mph /  22.5km/h 56% 0.00in /  0mm
20:20 52.7 °F /  11.5 °C 37.0 °F /  2.8 °C 30.03in /  1016.8hPa ENE 8.0mph /  12.9km/h 17.0mph /  27.4km/h 55% 0.00in /  0mm
20:25 52.5 °F /  11.4 °C 37.2 °F /  2.9 °C 30.03in /  1016.8hPa ENE 8.0mph /  12.9km/h 17.0mph /  27.4km/h 56% 0.00in /  0mm
20:30 52.2 °F /  11.2 °C 36.5 °F /  2.5 °C 30.03in /  1016.8hPa ENE 8.0mph /  12.9km/h 17.0mph /  27.4km/h 55% 0.00in /  0mm
20:35 52.1 °F /  11.2 °C 36.9 °F /  2.7 °C 30.03in /  1016.8hPa ENE 8.0mph /  12.9km/h 17.0mph /  27.4km/h 56% 0.00in /  0mm
20:40 51.8 °F /  11 °C 37.0 °F /  2.8 °C 30.04in /  1017.2hPa ENE 6.0mph /  9.7km/h 14.0mph /  22.5km/h 57% 0.00in /  0mm
20:45 51.6 °F /  10.9 °C 36.9 °F /  2.7 °C 30.04in /  1017.2hPa East 7.0mph /  11.3km/h 13.0mph /  20.9km/h 57% 0.00in /  0mm
20:50 51.5 °F /  10.8 °C 36.8 °F /  2.7 °C 30.04in /  1017.2hPa ENE 3.0mph /  4.8km/h 13.0mph /  20.9km/h 57% 0.00in /  0mm
20:55 51.2 °F /  10.7 °C 36.5 °F /  2.5 °C 30.04in /  1017.2hPa ENE 8.0mph /  12.9km/h 12.0mph /  19.3km/h 57% 0.00in /  0mm
21:00 51.2 °F /  10.7 °C 36.9 °F /  2.7 °C 30.04in /  1017.2hPa ENE 5.0mph /  8km/h 12.0mph /  19.3km/h 58% 0.00in /  0mm
21:05 51.1 °F /  10.6 °C 36.8 °F /  2.7 °C 30.04in /  1017.2hPa ENE 2.0mph /  3.2km/h 11.0mph /  17.7km/h 58% 0.00in /  0mm
21:10 51.1 °F /  10.6 °C 36.8 °F /  2.7 °C 30.04in /  1017.2hPa ENE 6.0mph /  9.7km/h 15.0mph /  24.1km/h 58% 0.00in /  0mm
21:15 51.1 °F /  10.6 °C 37.3 °F /  2.9 °C 30.04in /  1017.2hPa ENE 6.0mph /  9.7km/h 15.0mph /  24.1km/h 59% 0.00in /  0mm
21:20 51.1 °F /  10.6 °C 37.3 °F /  2.9 °C 30.04in /  1017.2hPa ENE 6.0mph /  9.7km/h 13.0mph /  20.9km/h 59% 0.00in /  0mm
21:25 51.1 °F /  10.6 °C 37.3 °F /  2.9 °C 30.05in /  1017.5hPa ENE 7.0mph /  11.3km/h 14.0mph /  22.5km/h 59% 0.00in /  0mm
21:30 51.1 °F /  10.6 °C 37.3 °F /  2.9 °C 30.05in /  1017.5hPa NE 4.0mph /  6.4km/h 14.0mph /  22.5km/h 59% 0.00in /  0mm
21:35 51.0 °F /  10.6 °C 37.2 °F /  2.9 °C 30.05in /  1017.5hPa ENE 5.0mph /  8km/h 15.0mph /  24.1km/h 59% 0.00in /  0mm
21:40 51.0 °F /  10.6 °C 37.2 °F /  2.9 °C 30.05in /  1017.5hPa ENE 6.0mph /  9.7km/h 15.0mph /  24.1km/h 59% 0.00in /  0mm
21:45 50.9 °F /  10.5 °C 37.5 °F /  3.1 °C 30.04in /  1017.2hPa ENE 6.0mph /  9.7km/h 13.0mph /  20.9km/h 60% 0.00in /  0mm
21:50 50.9 °F /  10.5 °C 37.5 °F /  3.1 °C 30.04in /  1017.2hPa ENE 6.0mph /  9.7km/h 13.0mph /  20.9km/h 60% 0.00in /  0mm
21:55 50.8 °F /  10.4 °C 37.4 °F /  3 °C 30.04in /  1017.2hPa ENE 6.0mph /  9.7km/h 13.0mph /  20.9km/h 60% 0.00in /  0mm
22:00 50.7 °F /  10.4 °C 37.7 °F /  3.2 °C 30.05in /  1017.5hPa East 8.0mph /  12.9km/h 12.0mph /  19.3km/h 61% 0.00in /  0mm
22:05 50.7 °F /  10.4 °C 37.7 °F /  3.2 °C 30.05in /  1017.5hPa ENE 4.0mph /  6.4km/h 10.0mph /  16.1km/h 61% 0.00in /  0mm
22:10 50.7 °F /  10.4 °C 37.7 °F /  3.2 °C 30.05in /  1017.5hPa ENE 6.0mph /  9.7km/h 13.0mph /  20.9km/h 61% 0.00in /  0mm
22:15 50.6 °F /  10.3 °C 37.6 °F /  3.1 °C 30.05in /  1017.5hPa ESE 9.0mph /  14.5km/h 17.0mph /  27.4km/h 61% 0.00in /  0mm
22:20 50.5 °F /  10.3 °C 37.5 °F /  3.1 °C 30.05in /  1017.5hPa ENE 4.0mph /  6.4km/h 13.0mph /  20.9km/h 61% 0.00in /  0mm
22:25 50.4 °F /  10.2 °C 37.9 °F /  3.3 °C 30.05in /  1017.5hPa East 5.0mph /  8km/h 12.0mph /  19.3km/h 62% 0.00in /  0mm
22:30 50.4 °F /  10.2 °C 37.9 °F /  3.3 °C 30.05in /  1017.5hPa ENE 3.0mph /  4.8km/h 11.0mph /  17.7km/h 62% 0.00in /  0mm
22:35 50.2 °F /  10.1 °C 37.7 °F /  3.2 °C 30.05in /  1017.5hPa East 5.0mph /  8km/h 11.0mph /  17.7km/h 62% 0.00in /  0mm
22:40 50.2 °F /  10.1 °C 37.7 °F /  3.2 °C 30.05in /  1017.5hPa East 5.0mph /  8km/h 12.0mph /  19.3km/h 62% 0.00in /  0mm
22:45 50.1 °F /  10.1 °C 37.6 °F /  3.1 °C 30.04in /  1017.2hPa East 6.0mph /  9.7km/h 13.0mph /  20.9km/h 62% 0.00in /  0mm
22:50 49.9 °F /  9.9 °C 37.8 °F /  3.2 °C 30.04in /  1017.2hPa ENE 5.0mph /  8km/h 13.0mph /  20.9km/h 63% 0.00in /  0mm
22:55 49.9 °F /  9.9 °C 37.8 °F /  3.2 °C 30.04in /  1017.2hPa ENE 5.0mph /  8km/h 11.0mph /  17.7km/h 63% 0.00in /  0mm
23:00 49.8 °F /  9.9 °C 37.7 °F /  3.2 °C 30.04in /  1017.2hPa ENE 5.0mph /  8km/h 11.0mph /  17.7km/h 63% 0.00in /  0mm
23:05 49.7 °F /  9.8 °C 38.0 °F /  3.3 °C 30.04in /  1017.2hPa NE 3.0mph /  4.8km/h 10.0mph /  16.1km/h 64% 0.00in /  0mm
23:10 49.7 °F /  9.8 °C 37.6 °F /  3.1 °C 30.04in /  1017.2hPa East 2.0mph /  3.2km/h 9.0mph /  14.5km/h 63% 0.00in /  0mm
23:20 49.7 °F /  9.8 °C 37.6 °F /  3.1 °C 30.04in /  1017.2hPa East 6.0mph /  9.7km/h 9.0mph /  14.5km/h 63% 0.00in /  0mm
23:25 49.7 °F /  9.8 °C 38.0 °F /  3.3 °C 30.04in /  1017.2hPa ENE 2.0mph /  3.2km/h 8.0mph /  12.9km/h 64% 0.00in /  0mm
23:30 49.7 °F /  9.8 °C 38.0 °F /  3.3 °C 30.04in /  1017.2hPa NE 4.0mph /  6.4km/h 9.0mph /  14.5km/h 64% 0.00in /  0mm
23:35 49.7 °F /  9.8 °C 37.6 °F /  3.1 °C 30.04in /  1017.2hPa NE 4.0mph /  6.4km/h 7.0mph /  11.3km/h 63% 0.00in /  0mm
23:40 49.8 °F /  9.9 °C 38.1 °F /  3.4 °C 30.04in /  1017.2hPa ENE 4.0mph /  6.4km/h 7.0mph /  11.3km/h 64% 0.00in /  0mm
23:45 49.8 °F /  9.9 °C 37.7 °F /  3.2 °C 30.04in /  1017.2hPa ENE 4.0mph /  6.4km/h 10.0mph /  16.1km/h 63% 0.00in /  0mm
23:50 49.7 °F /  9.8 °C 38.0 °F /  3.3 °C 30.03in /  1016.8hPa ENE 4.0mph /  6.4km/h 10.0mph /  16.1km/h 64% 0.00in /  0mm
23:55 49.6 °F /  9.8 °C 37.9 °F /  3.3 °C 30.03in /  1016.8hPa ENE 3.0mph /  4.8km/h 9.0mph /  14.5km/h 64% 0.00in /  0mm
Buffalo, New York, USA
Compliments of Weather Underground - 2.5 mb